Tiempo atmosférico en la estación meteorológica de Lorca, Murcia (320 m.)



Fecha
DESCASC
Temp. máxima en grados centígrados (hora)
DESCASC
Temp. mínima en grados centígrados (hora)
DESCASC
Temp. media en grados centígrados
DESCASC
Racha de viento máxima en m/sg (hora)
DESCASC
Velocidad máxima media en intervalos de 10 minutos(hora)
DESCASC
Precipitaciones diarias en mm
DESCASC
Precipitaciones de 00:00 a 06:00 en mm
DESCASC
Precipitaciones de 06:00 a 12:00 en mm
DESCASC
Precipitaciones de 12:00 a 18:00 en mm
DESCASC
Precipitaciones de 18:00 a 24:00 en mm
DESCASC
08-12-2019 19.3 (16:20) 5.2 (06:40) 12.2 4.72 (07:30) 2.78 (23:50) 0 0 0 0 0
07-12-2019 16.5 (15:30) 7.1 (23:20) 11.8 5.56 (08:20) 2.5 (10:40) 0 0 0 0 0
06-12-2019 15.3 (15:40) 9.3 (23:30) 12.3 4.72 (15:10) 1.94 (15:10) 0.2 0.2 0 0 0
05-12-2019 15.5 (15:20) 7.3 (00:00) 11.4 5 (14:30) 2.22 (19:40) 0 0 0 0 0
04-12-2019 12.7 (12:40) 8.5 (00:00) 10.6 11.39 (03:40) 5.83 (03:10) 1.2 0.7 0 0.3 0.2
03-12-2019 10.9 (01:50) 8.2 (00:00) 9.5 13.06 (13:20) 6.67 (23:20) 25.4 11.2 6.1 3.6 4.5
02-12-2019 12.6 (12:30) 9.8 (00:00) 11.2 7.22 (23:59) 3.33 (23:59) 10.7 0.2 0 3.6 6.9
01-12-2019 20.5 (14:40) 6.5 (00:00) 13.5 4.44 (21:20) 2.5 (18:00) 0 0 0 0 0
30-11-2019 20.5 (14:10) 7.2 (00:00) 13.8 5.83 (15:00) 2.78 (14:50) 0 0 0 0 0
29-11-2019 22 (16:10) 7.4 (00:00) 14.7 6.94 (03:00) 4.17 (03:00) 0 0 0 0 0
28-11-2019 20.8 (15:50) 6.8 (00:00) 13.8 5 (23:50) 2.78 (23:59) 0 0 0 0 0
27-11-2019 21.4 (14:20) 8.8 (00:00) 15.1 8.61 (12:40) 5.28 (19:10) 0 0 0 0 0
26-11-2019 21.4 (15:20) 7.6 (00:00) 14.5 5.28 (05:20) 2.5 (05:20) 0 0 0 0 0
25-11-2019 19.4 (16:10) 4.9 (00:00) 12.1 5.83 (16:00) 3.61 (16:20) 0 0 0 0 0
24-11-2019 17.5 (16:40) 7.6 (00:00) 12.5 8.89 (11:20) 4.17 (00:50) 0 0 0 0 0
23-11-2019 17.1 (15:10) 10.1 (00:00) 13.6 16.11 (07:20) 8.61 (07:20) 0.1 0 0.1 0 0
22-11-2019 14.8 (14:30) 7 (00:00) 10.9 8.33 (16:30) 3.89 (16:20) 6.6 0 0 0.4 6.2
21-11-2019 -- (--) -- (--) -- -- (--) -- (--) 0 0 0 0 0
20-11-2019 16.1 (14:10) 3.3 (00:00) 9.7 5 (14:50) 2.22 (06:30) 0.2 0 0 0.2 0
19-11-2019 15.8 (15:20) 2.5 (00:00) 9.2 5.28 (05:30) 2.5 (05:30) 0 0 0 0 0
18-11-2019 16 (15:20) 5.7 (00:00) 10.8 10.28 (12:20) 4.72 (12:30) 2.4 2.2 0.2 0 0
17-11-2019 15.6 (16:30) 0 (00:00) 7.8 5.28 (23:59) 2.22 (01:40) 0 0 0 0 0
16-11-2019 15.5 (14:40) 4.2 (00:00) 9.8 7.78 (11:50) 3.89 (11:50) 0 0 0 0 0
15-11-2019 13.7 (13:40) 6.4 (00:00) 10 8.61 (03:00) 4.72 (14:30) 0 0 0 0 0
14-11-2019 16.2 (14:50) 8.5 (00:00) 12.4 16.67 (19:20) 9.72 (20:10) 0 0 0 0 0
13-11-2019 22.9 (14:10) 8.5 (00:00) 15.7 9.17 (15:50) 4.72 (14:10) 0 0 0 0 0
12-11-2019 20 (15:10) 8.6 (00:00) 14.3 10 (11:10) 4.72 (13:00) 0 0 0 0 0
11-11-2019 16.9 (14:30) 9.7 (07:10) 13.3 13.33 (06:10) 8.33 (02:40) 0 0 0 0 0

Gráficas

Temp. máximas Temp. mínimas Temp. medias Precipitaciones Rachas de viento máximas Velocidades máximas media en intervalos de 10 minutos

Datos horarios

Fecha y hora oficial Temperatura (ºC) Velocidad del viento (km/h) Dirección del viento Racha (km/h) Dirección de racha Precipitación (mm) Presión (hPa) Tendencia (hPa) Humedad (%)
2019-12-10 23:00:00 7.1 2 Oeste 12 Noroeste 0 -- -- 78
2019-12-10 22:00:00 10.6 6 Norte 13 Noroeste 0 -- -- 58
2019-12-10 21:00:00 9.1 0 Calma 10 Norte 0 -- -- 70
2019-12-10 20:00:00 11.2 4 Norte 7 Norte 0 -- -- 56
2019-12-10 19:00:00 11.2 3 Noroeste 6 Noroeste 0 -- -- 59
2019-12-10 18:00:00 14.3 4 Nordeste 13 Nordeste 0 -- -- 47
2019-12-10 17:00:00 17.4 6 Nordeste 13 Nordeste 0 -- -- 43
2019-12-10 16:00:00 19.1 4 Nordeste 11 Nordeste 0 -- -- 46
2019-12-10 15:00:00 20.3 2 Este 9 Este 0 -- -- 40
2019-12-10 14:00:00 21.6 2 Noroeste 11 Noroeste 0 -- -- 31
2019-12-10 13:00:00 19.5 0 Calma 17 Noroeste 0 -- -- 35
2019-12-10 12:00:00 17.4 9 Noroeste 20 Noroeste 0 -- -- 38
2019-12-10 11:00:00 14.3 4 Sur 12 Norte 0 -- -- 49
2019-12-10 10:00:00 12.3 9 Nordeste 18 Nordeste 0 -- -- 47
2019-12-10 09:00:00 10.7 4 Oeste 17 Noroeste 0 -- -- 48
2019-12-10 08:00:00 8.2 0 Calma 15 Noroeste 0 -- -- 54
2019-12-10 07:00:00 10.3 3 Norte 15 Noroeste 0 -- -- 52
2019-12-10 06:00:00 11.8 8 Noroeste 21 Noroeste 0 -- -- 48
2019-12-10 05:00:00 11.1 9 Noroeste 21 Sudoeste 0 -- -- 53
2019-12-10 04:00:00 11.6 4 Oeste 18 Noroeste 0 -- -- 53
2019-12-10 03:00:00 11.8 4 Noroeste 22 Noroeste 0 -- -- 52
2019-12-10 02:00:00 11.6 4 Oeste 21 Noroeste 0 -- -- 54
2019-12-10 01:00:00 11.9 5 Norte 15 Norte 0 -- -- 58
2019-12-10 00:00:00 13 9 Noroeste 17 Noroeste 0 -- -- 53
2019-12-09 23:00:00 13.9 8 Noroeste 18 Noroeste 0 -- -- 49
2019-12-09 22:00:00 13.2 4 Noroeste 20 Noroeste 0 -- -- 51
2019-12-09 21:00:00 11.9 4 Norte 8 Norte 0 -- -- 59
2019-12-09 20:00:00 12.8 2 Norte 10 Nordeste 0 -- -- 56
2019-12-09 19:00:00 14.3 6 Norte 11 Norte 0 -- -- 52
2019-12-09 18:00:00 14.5 5 Nordeste 10 Nordeste 0 -- -- 59
2019-12-09 17:00:00 18.5 0 Calma 6 Sudoeste 0 -- -- 46
2019-12-09 16:00:00 20.3 4 Sudoeste 15 Oeste 0 -- -- 36
2019-12-09 15:00:00 21.4 5 Noroeste 14 Noroeste 0 -- -- 30
2019-12-09 14:00:00 20.2 5 Noroeste 15 Noroeste 0 -- -- 35
2019-12-09 13:00:00 18.8 10 Noroeste 17 Noroeste 0 -- -- 43
2019-12-09 12:00:00 17.6 8 Noroeste 15 Norte 0 -- -- 47
2019-12-09 11:00:00 16.1 0 Calma 15 Noroeste 0 -- -- 58
2019-12-09 10:00:00 14.7 8 Noroeste 17 Noroeste 0 -- -- 53
2019-12-09 09:00:00 12.3 3 Noroeste 23 Noroeste 0 -- -- 65
2019-12-09 08:00:00 13.2 3 Noroeste 25 Noroeste 0 -- -- 62
2019-12-09 07:00:00 13 13 Noroeste 31 Noroeste 0 -- -- 65
2019-12-09 06:00:00 10.9 3 Noroeste 8 Norte 0 -- -- 73
2019-12-09 05:00:00 11.3 5 Nordeste 14 Nordeste 0 -- -- 70
2019-12-09 04:00:00 11.1 3 Norte 8 Sur 0 -- -- 70
2019-12-09 03:00:00 11.9 0 Calma 10 Noroeste 0 -- -- 65
2019-12-09 02:00:00 12.8 8 Noroeste 14 Noroeste 0 -- -- 59
2019-12-09 01:00:00 13 7 Norte 18 Noroeste 0 -- -- 56
2019-12-09 00:00:00 13 9 Noroeste 16 Noroeste 0 -- -- 55
2019-12-08 23:00:00 11.2 6 Noroeste 9 Noroeste 0 -- -- 76
2019-12-08 22:00:00 11.8 2 Noroeste 11 Norte 0 -- -- 67
2019-12-08 21:00:00 12.2 4 Oeste 12 Noroeste 0 -- -- 71
2019-12-08 20:00:00 11.6 0 Calma 6 Nordeste 0 -- -- 74
2019-12-08 19:00:00 12.4 0 Calma 6 Oeste 0 -- -- 71
2019-12-08 18:00:00 14.8 2 Sudoeste 9 Sudoeste 0 -- -- 61
2019-12-08 17:00:00 18 4 Sudoeste 8 Sudoeste 0 -- -- 47
2019-12-08 16:00:00 18.9 4 Sudoeste 9 Sur 0 -- -- 47
2019-12-08 15:00:00 18.4 5 Sur 10 Sudeste 0 -- -- 47
2019-12-08 14:00:00 17.9 0 Calma 6 Sur 0 -- -- 49
2019-12-08 13:00:00 16.3 4 Sudoeste 9 Sudoeste 0 -- -- 52
2019-12-08 12:00:00 14.6 3 Sudoeste 9 Sudoeste 0 -- -- 59
2019-12-08 11:00:00 11.9 0 Calma 8 Oeste 0 -- -- 71
2019-12-08 10:00:00 8.7 3 Oeste 8 Sudoeste 0 -- -- 82
2019-12-08 09:00:00 7.9 2 Oeste 17 Noroeste 0 -- -- 81
2019-12-08 08:00:00 7.5 4 Noroeste 17 Norte 0 -- -- 83
2019-12-08 07:00:00 5.3 3 Oeste 6 Noroeste 0 -- -- 93
2019-12-08 06:00:00 5.4 0 Calma 12 Noroeste 0 -- -- 93
2019-12-08 05:00:00 5.9 0 Calma 6 Sudoeste 0 -- -- 93
2019-12-08 04:00:00 6.8 3 Oeste 8 Oeste 0 -- -- 92
2019-12-08 03:00:00 6.1 3 Noroeste 6 Noroeste 0 -- -- 92
2019-12-08 02:00:00 6.6 0 Calma 4 Noroeste 0 -- -- 92
2019-12-08 01:00:00 7.1 0 Calma 10 Noroeste 0 -- -- 91
2019-12-08 00:00:00 8.3 4 Norte 8 Noroeste 0 -- -- 86
2019-12-07 23:00:00 7.4 0 Calma 3 Norte 0 -- -- 91
2019-12-07 22:00:00 8.3 0 Calma 3 Sudoeste 0 -- -- 89
2019-12-07 21:00:00 8.7 0 Calma 4 Norte 0 -- -- 88
2019-12-07 20:00:00 9.8 0 Calma 3 Norte 0 -- -- 84
2019-12-07 19:00:00 10.9 2 Noroeste 4 Noroeste 0 -- -- 79
2019-12-07 18:00:00 12.7 0 Calma 5 Este 0 -- -- 72
2019-12-07 17:00:00 14.8 0 Calma 9 Este 0 -- -- 67
2019-12-07 16:00:00 15.9 4 Nordeste 10 Nordeste 0 -- -- 64
2019-12-07 15:00:00 16 3 Nordeste 8 Nordeste 0 -- -- 62
2019-12-07 14:00:00 15.2 3 Nordeste 7 Nordeste 0 -- -- 60
2019-12-07 13:00:00 13.8 2 Norte 10 Nordeste 0 -- -- 65
2019-12-07 12:00:00 12.8 3 Norte 13 Noroeste 0 -- -- 68
2019-12-07 11:00:00 10.9 3 Norte 18 Noroeste 0 -- -- 74
2019-12-07 10:00:00 9 0 Calma 8 Noroeste 0 -- -- 83
2019-12-07 09:00:00 8.8 6 Noroeste 20 Noroeste 0 -- -- 77
2019-12-07 08:00:00 9.7 8 Noroeste 19 Noroeste 0 -- -- 76
2019-12-07 07:00:00 8.7 5 Norte 15 Noroeste 0 -- -- 82
2019-12-07 06:00:00 8.1 5 Norte 13 Norte 0 -- -- 85
2019-12-07 05:00:00 7.7 6 Norte 13 Norte 0 -- -- 86
2019-12-07 04:00:00 8.4 5 Norte 14 Noroeste 0 -- -- 86
2019-12-07 03:00:00 8.7 5 Norte 12 Nordeste 0 -- -- 86
2019-12-07 02:00:00 9.2 4 Norte 11 Noroeste 0 -- -- 85
2019-12-07 01:00:00 9.2 5 Norte 12 Norte 0 -- -- 86
2019-12-07 00:00:00 9.4 4 Norte 9 Norte 0 -- -- 86
2019-12-06 23:00:00 9.6 4 Norte 8 Noroeste 0 -- -- 86
2019-12-06 22:00:00 10.3 3 Norte 7 Norte 0 -- -- 87
2019-12-06 21:00:00 11.5 0 Calma 8 Nordeste 0 -- -- 85
2019-12-06 20:00:00 11.8 6 Nordeste 9 Nordeste 0 -- -- 79
2019-12-06 19:00:00 12.1 0 Calma 4 Este 0 -- -- 78
2019-12-06 18:00:00 12.5 0 Calma 12 Nordeste 0 -- -- 74
2019-12-06 17:00:00 13.7 4 Nordeste 16 Nordeste 0 -- -- 70
2019-12-06 16:00:00 14.8 4 Este 17 Nordeste 0 -- -- 66
2019-12-06 15:00:00 14.7 4 Nordeste 13 Nordeste 0 -- -- 67
2019-12-06 14:00:00 13.8 4 Nordeste 10 Norte 0 -- -- 70
2019-12-06 13:00:00 13.2 3 Norte 12 Noroeste 0 -- -- 71
2019-12-06 12:00:00 12.7 5 Noroeste 13 Noroeste 0 -- -- 74
2019-12-06 11:00:00 11.9 3 Nordeste 9 Norte 0 -- -- 79
2019-12-06 10:00:00 11.2 3 Nordeste 9 Noroeste 0 -- -- 81
2019-12-06 09:00:00 10.6 3 Nordeste 12 Noroeste 0 -- -- 83
2019-12-06 08:00:00 10.2 6 Norte 12 Nordeste 0 -- -- 82
2019-12-06 07:00:00 10.1 3 Norte 11 Norte 0 -- -- 84
2019-12-06 06:00:00 9.7 5 Norte 14 Norte 0 -- -- 84
2019-12-06 05:00:00 9.7 3 Norte 10 Nordeste 0 -- -- 84
2019-12-06 04:00:00 10.2 4 Norte 9 Norte 0.2 -- -- 85
2019-12-06 03:00:00 10.5 3 Norte 9 Noroeste 0 -- -- 83
2019-12-06 02:00:00 10.3 4 Norte 8 Nordeste 0 -- -- 85
2019-12-06 01:00:00 10 3 Norte 8 Norte 0 -- -- 87
2019-12-06 00:00:00 10.2 3 Norte 6 Norte 0 -- -- 87
2019-12-05 23:00:00 10.7 4 Norte 8 Nordeste 0 -- -- 90
2019-12-05 22:00:00 10.8 3 Nordeste 13 Nordeste 0 -- -- 90
2019-12-05 21:00:00 11.2 6 Nordeste 10 Nordeste 0 -- -- 90
2019-12-05 20:00:00 11.3 4 Nordeste 14 Nordeste 0 -- -- 86
2019-12-05 19:00:00 12 4 Nordeste 13 Nordeste 0 -- -- 79
2019-12-05 18:00:00 12.7 3 Nordeste 12 Nordeste 0 -- -- 75
2019-12-05 17:00:00 13.7 2 Este 12 Nordeste 0 -- -- 67
2019-12-05 16:00:00 15.2 3 Este 12 Este 0 -- -- 64
2019-12-05 15:00:00 15.2 3 Este 18 Nordeste 0 -- -- 61
2019-12-05 14:00:00 14.8 5 Nordeste 15 Este 0 -- -- 60
2019-12-05 13:00:00 13.9 4 Nordeste 10 Nordeste 0 -- -- 64
2019-12-05 12:00:00 11.7 0 Calma 6 Nordeste 0 -- -- 71
2019-12-05 11:00:00 10.8 0 Calma 5 Nordeste 0 -- -- 76
2019-12-05 10:00:00 10.6 2 Norte 9 Noroeste 0 -- -- 72
2019-12-05 09:00:00 9.2 4 Norte 10 Norte 0 -- -- 82
2019-12-05 08:00:00 8.9 3 Nordeste 10 Nordeste 0 -- -- 82
2019-12-05 07:00:00 8.7 4 Norte 8 Oeste 0 -- -- 84
2019-12-05 06:00:00 8.3 0 Calma 8 Oeste 0 -- -- 89
2019-12-05 05:00:00 7.8 0 Calma 9 Noroeste 0 -- -- 91
2019-12-05 04:00:00 7.7 0 Calma 7 Noroeste 0 -- -- 90
2019-12-05 03:00:00 7.9 2 Noroeste 7 Noroeste 0 -- -- 93
2019-12-05 02:00:00 7.3 0 Calma 5 Sur 0 -- -- 93
2019-12-05 01:00:00 7.9 0 Calma 4 Norte 0 -- -- 92
2019-12-05 00:00:00 8.5 2 Sur 7 Sur 0 -- -- 91
2019-12-04 23:00:00 9.2 0 Calma 3 Norte 0 -- -- 89
2019-12-04 22:00:00 9.6 0 Calma 3 Norte 0 -- -- 89
2019-12-04 21:00:00 9.7 0 Calma 4 Noroeste 0 -- -- 89
2019-12-04 20:00:00 9.8 0 Calma 7 Sudoeste 0 -- -- 89
2019-12-04 19:00:00 10.6 2 Sur 6 Norte 0.2 -- -- 84
2019-12-04 18:00:00 11.2 5 Noroeste 7 Noroeste 0 -- -- 78
2019-12-04 17:00:00 11.3 0 Calma 9 Norte 0.3 -- -- 79
2019-12-04 16:00:00 11.7 4 Norte 12 Noroeste 0 -- -- 74
2019-12-04 15:00:00 12.6 4 Noroeste 11 Noroeste 0 -- -- 62
2019-12-04 14:00:00 12.4 5 Norte 23 Noroeste 0 -- -- 61
2019-12-04 13:00:00 12.5 8 Norte 22 Noroeste 0 -- -- 62
2019-12-04 12:00:00 12.3 11 Noroeste 23 Noroeste 0 -- -- 62
2019-12-04 11:00:00 12.3 8 Noroeste 24 Noroeste 0 -- -- 61
2019-12-04 10:00:00 12.1 11 Noroeste 21 Noroeste 0 -- -- 62
2019-12-04 09:00:00 11.4 5 Noroeste 14 Noroeste 0 -- -- 67
2019-12-04 08:00:00 11.4 9 Noroeste 32 Noroeste 0 -- -- 67
2019-12-04 07:00:00 11 20 Noroeste 33 Noroeste 0 -- -- 66
2019-12-04 06:00:00 10.9 10 Norte 33 Noroeste 0 -- -- 67
2019-12-04 05:00:00 10.5 17 Noroeste 39 Noroeste 0.5 -- -- 71
2019-12-04 04:00:00 10 17 Noroeste 41 Noroeste 0.2 -- -- 73
2019-12-04 03:00:00 9.9 17 Noroeste 35 Noroeste 0 -- -- 71
2019-12-04 02:00:00 9.7 20 Noroeste 41 Noroeste 0 -- -- 71
2019-12-04 01:00:00 9.1 18 Noroeste 39 Noroeste 0 -- -- 72
2019-12-04 00:00:00 8.9 21 Noroeste 37 Noroeste 0 -- -- 72
2019-12-03 23:00:00 8.6 19 Noroeste 35 Noroeste 0.2 -- -- 76
2019-12-03 22:00:00 8.3 12 Noroeste 27 Noroeste 0.7 -- -- 82
2019-12-03 21:00:00 8.4 12 Norte 29 Noroeste 1.8 -- -- 84
2019-12-03 20:00:00 8.7 8 Norte 28 Noroeste 0.6 -- -- 85
2019-12-03 19:00:00 8.8 6 Norte 16 Noroeste 1.2 -- -- 91
2019-12-03 18:00:00 9.2 5 Nordeste 12 Nordeste 0.5 -- -- 94
2019-12-03 17:00:00 9.2 6 Nordeste 22 Nordeste 0.7 -- -- 94
2019-12-03 16:00:00 9.4 8 Nordeste 22 Nordeste 0.4 -- -- 94
2019-12-03 15:00:00 9.5 6 Nordeste 32 Nordeste 1.2 -- -- 92
2019-12-03 14:00:00 9.7 14 Nordeste 47 Nordeste 0.8 -- -- 86
2019-12-03 13:00:00 10.2 18 Nordeste 46 Nordeste 0 -- -- 79
2019-12-03 12:00:00 10.1 18 Nordeste 40 Nordeste 1.2 -- -- 83
2019-12-03 11:00:00 10 17 Nordeste 39 Nordeste 0 -- -- 82
2019-12-03 10:00:00 10.3 17 Nordeste 42 Nordeste 0 -- -- 79
2019-12-03 09:00:00 9.8 12 Nordeste 33 Nordeste 0.2 -- -- 88
2019-12-03 08:00:00 9.7 11 Nordeste 27 Nordeste 1.3 -- -- 88
2019-12-03 07:00:00 9.5 6 Nordeste 17 Noroeste 3.4 -- -- 89
2019-12-03 06:00:00 9.6 6 Norte 30 Nordeste 2.5 -- -- 89
2019-12-03 05:00:00 10.4 12 Nordeste 29 Nordeste 4.5 -- -- 84
2019-12-03 04:00:00 10.1 3 Norte 23 Nordeste 1.8 -- -- 86
2019-12-03 03:00:00 10.3 6 Nordeste 32 Nordeste 0.2 -- -- 89
2019-12-03 02:00:00 10.9 16 Nordeste 36 Nordeste 0 -- -- 88
2019-12-03 01:00:00 10.7 10 Nordeste 33 Nordeste 2.2 -- -- 91
2019-12-03 00:00:00 10.6 12 Nordeste 26 Nordeste 2.6 -- -- 94
2019-12-02 23:00:00 10.7 8 Nordeste 20 Nordeste 3.1 -- -- 94
2019-12-02 22:00:00 10.7 6 Nordeste 20 Nordeste 0.7 -- -- 94
2019-12-02 21:00:00 11 7 Nordeste 14 Nordeste 0 -- -- 94
2019-12-02 20:00:00 10.9 4 Nordeste 14 Nordeste 0.2 -- -- 94
2019-12-02 19:00:00 10.9 2 Nordeste 10 Nordeste 0.3 -- -- 94
2019-12-02 18:00:00 10.9 5 Nordeste 13 Nordeste 0.4 -- -- 94
2019-12-02 17:00:00 11 3 Nordeste 12 Nordeste 0.4 -- -- 94
2019-12-02 16:00:00 11.3 3 Este 14 Nordeste 1.4 -- -- 92
2019-12-02 15:00:00 11.9 3 Nordeste 9 Nordeste 1 -- -- 91
2019-12-02 14:00:00 11.7 2 Este 14 Nordeste 0.4 -- -- 88
2019-12-02 13:00:00 12.3 3 Este 16 Nordeste 0 -- -- 83
2019-12-02 12:00:00 12.3 5 Este 17 Nordeste 0 -- -- 83
2019-12-02 11:00:00 11.8 4 Nordeste 14 Nordeste 0 -- -- 85
2019-12-02 10:00:00 11.2 2 Nordeste 7 Nordeste 0 -- -- 84
2019-12-02 09:00:00 10.9 4 Norte 9 Norte 0 -- -- 85
2019-12-02 08:00:00 10.7 4 Norte 10 Noroeste 0 -- -- 84
2019-12-02 07:00:00 10.9 3 Norte 8 Norte 0 -- -- 86
2019-12-02 06:00:00 10.5 2 Noroeste 16 Norte 0 -- -- 89
2019-12-02 05:00:00 10.3 4 Norte 12 Noroeste 0 -- -- 90
2019-12-02 04:00:00 10.6 4 Nordeste 18 Sudoeste 0 -- -- 91
2019-12-02 03:00:00 10.7 3 Oeste 8 Sudoeste 0.2 -- -- 91
2019-12-02 02:00:00 10.9 0 Calma 8 Nordeste 0 -- -- 84
2019-12-02 01:00:00 10.7 0 Calma 7 Nordeste 0 -- -- 86
2019-12-02 00:00:00 9.8 2 Nordeste 8 Nordeste 0 -- -- 90
2019-12-01 23:00:00 10.2 0 Calma 8 Nordeste 0 -- -- 89
2019-12-01 22:00:00 11.3 3 Nordeste 16 Nordeste 0 -- -- 85
2019-12-01 21:00:00 12 4 Nordeste 10 Nordeste 0 -- -- 80
2019-12-01 20:00:00 12.1 8 Nordeste 13 Nordeste 0 -- -- 79
2019-12-01 19:00:00 12.8 2 Este 14 Nordeste 0 -- -- 73
2019-12-01 18:00:00 14.2 9 Nordeste 14 Nordeste 0 -- -- 69
2019-12-01 17:00:00 16.7 0 Calma 9 Sudeste 0 -- -- 61
2019-12-01 16:00:00 17.3 2 Este 14 Nordeste 0 -- -- 56
2019-12-01 15:00:00 19.8 0 Calma 10 Nordeste 0 -- -- 44
2019-12-01 14:00:00 19.6 0 Calma 9 Sur 0 -- -- 40
2019-12-01 13:00:00 18.6 4 Norte 14 Noroeste 0 -- -- 43
2019-12-01 12:00:00 17.6 4 Noroeste 12 Noroeste 0 -- -- 52
2019-12-01 11:00:00 14.4 0 Calma 10 Sudoeste 0 -- -- 65
2019-12-01 10:00:00 11.2 0 Calma 6 Sudeste 0 -- -- 82
2019-12-01 09:00:00 7.8 0 Calma 7 Sur 0 -- -- 88
2019-12-01 08:00:00 7.9 0 Calma 9 Oeste 0 -- -- 88
2019-12-01 07:00:00 7.3 2 Sudoeste 8 Sudoeste 0 -- -- 90
2019-12-01 06:00:00 6.8 0 Calma 4 Oeste 0 -- -- 91
2019-12-01 05:00:00 7.5 0 Calma 8 Sudoeste 0 -- -- 91
2019-12-01 04:00:00 7.2 3 Norte 7 Sudoeste 0 -- -- 93
2019-12-01 03:00:00 7 0 Calma 7 Norte 0 -- -- 94
2019-12-01 02:00:00 7.4 0 Calma 5 Noroeste 0 -- -- 94
2019-12-01 01:00:00 7.8 0 Calma 6 Sudeste 0 -- -- 93
2019-12-01 00:00:00 8.5 0 Calma 6 Sudoeste 0 -- -- 93
2019-11-30 23:00:00 9.4 2 Noroeste 5 Norte 0 -- -- 91
2019-11-30 22:00:00 10.5 2 Noroeste 7 Norte 0 -- -- 88
2019-11-30 21:00:00 11.6 3 Norte 5 Norte 0 -- -- 85
2019-11-30 20:00:00 12 0 Calma 5 Sur 0 -- -- 83
2019-11-30 19:00:00 13.6 0 Calma 9 Sudoeste 0 -- -- 78
2019-11-30 18:00:00 15.5 5 Sudoeste 15 Sudoeste 0 -- -- 70
2019-11-30 17:00:00 18.6 5 Sur 17 Sur 0 -- -- 55
2019-11-30 16:00:00 19.9 6 Sur 19 Sur 0 -- -- 52
2019-11-30 15:00:00 20 10 Sur 21 Sur 0 -- -- 53
2019-11-30 14:00:00 20.3 7 Sur 15 Sur 0 -- -- 52
2019-11-30 13:00:00 19.3 5 Sur 11 Sur 0 -- -- 55
2019-11-30 12:00:00 17.4 0 Calma 5 Nordeste 0 -- -- 61
2019-11-30 11:00:00 14.2 2 Oeste 6 Noroeste 0 -- -- 73
2019-11-30 10:00:00 10.3 0 Calma 5 Sur 0 -- -- 88
2019-11-30 09:00:00 9.1 2 Sudoeste 15 Noroeste 0 -- -- 87
2019-11-30 08:00:00 9.1 4 Norte 9 Nordeste 0 -- -- 91
2019-11-30 07:00:00 7.8 0 Calma 4 Sudoeste 0 -- -- 92
2019-11-30 06:00:00 8.7 0 Calma 3 Sur 0 -- -- 91
2019-11-30 05:00:00 8.8 0 Calma 4 Noroeste 0 -- -- 90
2019-11-30 04:00:00 9.2 0 Calma 6 Norte 0 -- -- 89
2019-11-30 03:00:00 8.9 0 Calma 5 Nordeste 0 -- -- 90
2019-11-30 02:00:00 8.9 0 Calma 4 Sudeste 0 -- -- 89
2019-11-30 01:00:00 9.9 0 Calma 7 Noroeste 0 -- -- 87
2019-11-30 00:00:00 10.4 0 Calma 4 Noroeste 0 -- -- 86
2019-11-29 23:00:00 11.4 0 Calma 10 Noroeste 0 -- -- 84
2019-11-29 22:00:00 13.4 5 Noroeste 10 Noroeste 0 -- -- 73
2019-11-29 21:00:00 12.2 0 Calma 4 Sudeste 0 -- -- 80
2019-11-29 20:00:00 13.3 0 Calma 3 Sudeste 0 -- -- 73
2019-11-29 19:00:00 15.3 0 Calma 7 Oeste 0 -- -- 67
2019-11-29 18:00:00 17.6 3 Sur 6 Sur 0 -- -- 59
2019-11-29 17:00:00 20.1 0 Calma 8 Sudeste 0 -- -- 47
2019-11-29 16:00:00 21.6 2 Sudeste 11 Sur 0 -- -- 41
2019-11-29 15:00:00 21.5 4 Sur 10 Sur 0 -- -- 41
2019-11-29 14:00:00 19.9 4 Sudoeste 11 Sudoeste 0 -- -- 45
2019-11-29 13:00:00 18.6 2 Sudoeste 10 Sur 0 -- -- 49
2019-11-29 12:00:00 16.8 4 Sur 10 Sudoeste 0 -- -- 55
2019-11-29 11:00:00 14.4 5 Sudoeste 9 Sudoeste 0 -- -- 64
2019-11-29 10:00:00 11.5 3 Sudoeste 15 Noroeste 0 -- -- 71
2019-11-29 09:00:00 8.4 0 Calma 5 Sudoeste 0 -- -- 81
2019-11-29 08:00:00 7.7 0 Calma 7 Oeste 0 -- -- 82
2019-11-29 07:00:00 7.9 2 Oeste 11 Noroeste 0 -- -- 81
2019-11-29 06:00:00 9.1 4 Noroeste 12 Noroeste 0 -- -- 78
2019-11-29 05:00:00 9.2 4 Noroeste 16 Noroeste 0 -- -- 74
2019-11-29 04:00:00 8.4 3 Oeste 21 Noroeste 0 -- -- 79
2019-11-29 03:00:00 11.2 15 Noroeste 25 Noroeste 0 -- -- 71
2019-11-29 02:00:00 10.8 9 Noroeste 15 Noroeste 0 -- -- 74
2019-11-29 01:00:00 9.6 0 Calma 17 Noroeste 0 -- -- 82
2019-11-29 00:00:00 11.7 10 Noroeste 18 Norte 0 -- -- 73
2019-11-28 23:00:00 11.6 8 Noroeste 17 Norte 0 -- -- 78
2019-11-28 22:00:00 10.1 3 Noroeste 12 Sudoeste 0 -- -- 85
2019-11-28 21:00:00 11.2 0 Calma 11 Noroeste 0 -- -- 79
2019-11-28 20:00:00 11.5 2 Norte 7 Sudoeste 0 -- -- 78
2019-11-28 19:00:00 13.4 3 Sudoeste 9 Sudoeste 0 -- -- 72
2019-11-28 18:00:00 14.8 5 Sudoeste 16 Sudoeste 0 -- -- 69
2019-11-28 17:00:00 17 10 Sudoeste 18 Sudoeste 0 -- -- 59
2019-11-28 16:00:00 19.9 4 Sur 14 Sudoeste 0 -- -- 46
2019-11-28 15:00:00 20.1 4 Sur 12 Sudoeste 0 -- -- 45
2019-11-28 14:00:00 20 4 Sur 10 Sur 0 -- -- 45
2019-11-28 13:00:00 18.7 3 Sudoeste 9 Sudoeste 0 -- -- 47
2019-11-28 12:00:00 16.8 3 Norte 9 Noroeste 0 -- -- 53
2019-11-28 11:00:00 14.4 4 Sudoeste 10 Sudoeste 0 -- -- 61
2019-11-28 10:00:00 11.5 3 Sudoeste 9 Noroeste 0 -- -- 74
2019-11-28 09:00:00 9.1 3 Noroeste 8 Este 0 -- -- 83
2019-11-28 08:00:00 7.5 3 Noroeste 9 Sudeste 0 -- -- 83
2019-11-28 07:00:00 8.1 0 Calma 7 Oeste 0 -- -- 82
2019-11-28 06:00:00 7.4 0 Calma 8 Sur 0 -- -- 84
2019-11-28 05:00:00 7.9 3 Oeste 8 Sur 0 -- -- 82
2019-11-28 04:00:00 7.7 3 Sur 9 Sudeste 0 -- -- 82
2019-11-28 03:00:00 8.6 4 Sudoeste 8 Oeste 0 -- -- 79
2019-11-28 02:00:00 9.3 0 Calma 7 Sudoeste 0 -- -- 76
2019-11-28 01:00:00 9.9 2 Oeste 11 Sur 0 -- -- 72
2019-11-28 00:00:00 11.2 5 Sur 15 Noroeste 0 -- -- 64
2019-11-27 23:00:00 13.3 9 Noroeste 17 Noroeste 0 -- -- 60
2019-11-27 22:00:00 13.8 6 Noroeste 14 Noroeste 0 -- -- 55
2019-11-27 21:00:00 14.3 4 Noroeste 13 Noroeste 0 -- -- 54
2019-11-27 20:00:00 14.9 3 Norte 30 Noroeste 0 -- -- 47
2019-11-27 19:00:00 17.1 14 Noroeste 28 Noroeste 0 -- -- 42
2019-11-27 18:00:00 16.7 0 Calma 24 Noroeste 0 -- -- 43
2019-11-27 17:00:00 19.9 5 Oeste 22 Noroeste 0 -- -- 37
2019-11-27 16:00:00 20.6 10 Noroeste 28 Noroeste 0 -- -- 36
2019-11-27 15:00:00 20.9 12 Noroeste 23 Noroeste 0 -- -- 37
2019-11-27 14:00:00 21 6 Oeste 28 Noroeste 0 -- -- 39
2019-11-27 06:00:00 9.5 2 Sudeste 7 Norte 0 -- -- 90
2019-11-27 05:00:00 8.9 0 Calma 6 Noroeste 0 -- -- 89
2019-11-27 04:00:00 9.3 2 Sur 8 Sur 0 -- -- 89
2019-11-27 03:00:00 9.7 0 Calma 9 Sudoeste 0 -- -- 89
2019-11-27 02:00:00 10.1 3 Sudeste 8 Sudeste 0 -- -- 89
2019-11-27 01:00:00 10.7 3 Noroeste 8 Noroeste 0 -- -- 89
2019-11-27 00:00:00 10.7 0 Calma 10 Norte 0 -- -- 91
2019-11-26 23:00:00 10.4 0 Calma 6 Noroeste 0 -- -- 91
2019-11-26 22:00:00 11.4 0 Calma 6 Sur 0 -- -- 89
2019-11-26 21:00:00 12.8 3 Norte 8 Norte 0 -- -- 86
2019-11-26 20:00:00 12.7 0 Calma 4 Sudoeste 0 -- -- 84
2019-11-26 19:00:00 14.3 2 Sur 10 Sudoeste 0 -- -- 80
2019-11-26 18:00:00 15.6 7 Sudoeste 16 Sudoeste 0 -- -- 74
2019-11-26 17:00:00 17.6 7 Sudoeste 15 Sudoeste 0 -- -- 62
2019-11-26 16:00:00 19.6 6 Sudoeste 15 Sudoeste 0 -- -- 52
2019-11-26 15:00:00 20.9 3 Sudoeste 12 Sur 0 -- -- 48
2019-11-26 14:00:00 20.1 4 Sur 12 Sudoeste 0 -- -- 49
2019-11-26 13:00:00 19.3 6 Sur 11 Sur 0 -- -- 53
2019-11-26 12:00:00 18.4 4 Sur 15 Noroeste 0 -- -- 59
2019-11-26 11:00:00 16.3 0 Calma 8 Nordeste 0 -- -- 64
2019-11-26 10:00:00 12 2 Sudoeste 9 Oeste 0 -- -- 82
2019-11-26 09:00:00 10.9 3 Noroeste 16 Noroeste 0 -- -- 80
2019-11-26 08:00:00 8 2 Sudoeste 15 Noroeste 0 -- -- 89
2019-11-26 07:00:00 8.9 4 Noroeste 12 Noroeste 0 -- -- 90
2019-11-26 06:00:00 9.5 3 Noroeste 19 Noroeste 0 -- -- 85
2019-11-26 05:00:00 8.7 4 Sudoeste 11 Noroeste 0 -- -- 88
2019-11-26 04:00:00 8.6 0 Calma 10 Noroeste 0 -- -- 89
2019-11-26 03:00:00 9.1 0 Calma 6 Oeste 0 -- -- 89
2019-11-26 02:00:00 9.7 0 Calma 10 Sur 0 -- -- 88
2019-11-26 01:00:00 10.4 0 Calma 6 Noroeste 0 -- -- 86
2019-11-26 00:00:00 11.7 2 Noroeste 8 Sur 0 -- -- 83
2019-11-25 23:00:00 12.8 0 Calma 5 Norte 0 -- -- 78
2019-11-25 22:00:00 13 0 Calma 8 Norte 0 -- -- 78
2019-11-25 21:00:00 12.9 0 Calma 10 Norte 0 -- -- 78
2019-11-25 20:00:00 15.2 6 Noroeste 9 Noroeste 0 -- -- 69
2019-11-25 19:00:00 15.4 3 Nordeste 8 Noroeste 0 -- -- 69
2019-11-25 18:00:00 16.6 0 Calma 8 Sur 0 -- -- 65
2019-11-25 17:00:00 18.7 3 Sur 21 Noroeste 0 -- -- 58
2019-11-25 16:00:00 19.3 12 Noroeste 21 Oeste 0 -- -- 54
2019-11-25 15:00:00 18.6 0 Calma 8 Sur 0 -- -- 61
2019-11-25 14:00:00 18 0 Calma 10 Oeste 0 -- -- 58
2019-11-25 13:00:00 18.4 3 Sur 8 Sudoeste 0 -- -- 54
2019-11-25 12:00:00 14 2 Sudoeste 8 Sur 0 -- -- 64
2019-11-25 11:00:00 12.9 0 Calma 11 Noroeste 0 -- -- 67
2019-11-25 10:00:00 13.1 5 Norte 12 Norte 0 -- -- 66
2019-11-25 09:00:00 6.8 4 Sudoeste 10 Sur 0 -- -- 83
2019-11-25 08:00:00 5.5 4 Sur 8 Sur 0 -- -- 84
2019-11-25 07:00:00 5.5 0 Calma 6 Sudoeste 0 -- -- 83
2019-11-25 06:00:00 5.5 0 Calma 6 Norte 0 -- -- 81
2019-11-25 05:00:00 6.3 2 Sudoeste 10 Sur 0 -- -- 77
2019-11-25 04:00:00 5.6 0 Calma 9 Sudeste 0 -- -- 76
2019-11-25 03:00:00 6.3 2 Oeste 8 Sudoeste 0 -- -- 70
2019-11-25 02:00:00 5.8 3 Sudoeste 9 Sudoeste 0 -- -- 68
2019-11-25 01:00:00 6.6 0 Calma 7 Sudoeste 0 -- -- 65
2019-11-25 00:00:00 8.4 2 Sudoeste 11 Norte 0 -- -- 58
2019-11-24 23:00:00 9.8 6 Norte 11 Norte 0 -- -- 51
2019-11-24 22:00:00 9 3 Noroeste 9 Nordeste 0 -- -- 49
2019-11-24 21:00:00 10 6 Nordeste 10 Norte 0 -- -- 48
2019-11-24 20:00:00 10.9 4 Norte 13 Noroeste 0 -- -- 43
2019-11-24 19:00:00 13.2 8 Noroeste 22 Noroeste 0 -- -- 36
2019-11-24 18:00:00 14 4 Noroeste 11 Noroeste 0 -- -- 38
2019-11-24 17:00:00 16.5 5 Oeste 14 Noroeste 0 -- -- 35
2019-11-24 16:00:00 16.6 0 Calma 10 Sudoeste 0 -- -- 39
2019-11-24 15:00:00 16.5 6 Sur 16 Noroeste 0 -- -- 40
2019-11-24 14:00:00 16 5 Noroeste 22 Noroeste 0 -- -- 40
2019-11-24 13:00:00 15.1 12 Noroeste 27 Noroeste 0 -- -- 42
2019-11-24 12:00:00 14.3 12 Noroeste 32 Noroeste 0 -- -- 43
2019-11-24 11:00:00 13.6 12 Noroeste 26 Norte 0 -- -- 46
2019-11-24 10:00:00 11.9 7 Norte 20 Noroeste 0 -- -- 51
2019-11-24 09:00:00 10.7 7 Noroeste 24 Noroeste 0 -- -- 53
2019-11-24 08:00:00 10 12 Noroeste 26 Noroeste 0 -- -- 54
2019-11-24 07:00:00 10.4 9 Noroeste 24 Noroeste 0 -- -- 54
2019-11-24 06:00:00 8.1 0 Calma 15 Noroeste 0 -- -- 60
2019-11-24 05:00:00 10.1 10 Noroeste 26 Noroeste 0 -- -- 51
2019-11-24 04:00:00 11.6 14 Noroeste 29 Noroeste 0 -- -- 47
2019-11-24 03:00:00 10.5 6 Norte 22 Noroeste 0 -- -- 48
2019-11-24 02:00:00 11.3 8 Noroeste 24 Noroeste 0 -- -- 46
2019-11-24 01:00:00 12.1 9 Noroeste 27 Noroeste 0 -- -- 43
2019-11-24 00:00:00 12.1 8 Noroeste 24 Noroeste 0 -- -- 43
2019-11-23 23:00:00 11.8 4 Sudoeste 25 Oeste 0 -- -- 43
2019-11-23 22:00:00 12.7 19 Noroeste 39 Noroeste 0 -- -- 41
2019-11-23 21:00:00 11.6 14 Noroeste 27 Oeste 0 -- -- 42
2019-11-23 20:00:00 12.2 12 Noroeste 27 Noroeste 0 -- -- 41
2019-11-23 19:00:00 12.8 7 Noroeste 20 Noroeste 0 -- -- 40
2019-11-23 18:00:00 13.7 6 Noroeste 26 Sudoeste 0 -- -- 36
2019-11-23 17:00:00 14.8 14 Noroeste 26 Noroeste 0 -- -- 36
2019-11-23 16:00:00 16.2 6 Oeste 25 Noroeste 0 -- -- 38
2019-11-23 15:00:00 16.8 2 Oeste 33 Noroeste 0 -- -- 35
2019-11-23 14:00:00 15.8 4 Noroeste 24 Noroeste 0 -- -- 37
2019-11-23 13:00:00 16.1 8 Noroeste 33 Noroeste 0 -- -- 39
2019-11-23 12:00:00 15.8 2 Noroeste 26 Nordeste 0 -- -- 40
2019-11-23 11:00:00 15.1 4 Oeste 35 Noroeste 0 -- -- 43
2019-11-23 10:00:00 13.3 13 Noroeste 26 Oeste 0 -- -- 47
2019-11-23 09:00:00 12.3 11 Noroeste 49 Noroeste 0 -- -- 50
2019-11-23 08:00:00 12.2 20 Noroeste 58 Noroeste 0 -- -- 51
2019-11-23 07:00:00 11.6 31 Noroeste 55 Noroeste 0.1 -- -- 57
2019-11-23 06:00:00 12.7 13 Noroeste 40 Noroeste 0 -- -- 52
2019-11-23 05:00:00 10.2 0 Calma 33 Noroeste 0 -- -- 60
2019-11-23 04:00:00 13.9 9 Oeste 32 Oeste 0 -- -- 45
2019-11-23 03:00:00 13.5 7 Noroeste 28 Norte 0 -- -- 53
2019-11-23 02:00:00 11.6 6 Sur 21 Noroeste 0 -- -- 62
2019-11-23 01:00:00 11.7 5 Sudoeste 16 Sudoeste 0 -- -- 68
2019-11-23 00:00:00 12.7 8 Sudoeste 24 Sudoeste 0 -- -- 77
2019-11-22 23:00:00 11.9 6 Sudoeste 16 Sudoeste 0.2 -- -- 94
2019-11-22 22:00:00 12.1 5 Sudoeste 13 Sudoeste 0.4 -- -- 94
2019-11-22 21:00:00 12.2 8 Sudoeste 19 Sudoeste 0.6 -- -- 94
2019-11-22 20:00:00 12.2 5 Sudoeste 13 Sudoeste 3.9 -- -- 94
2019-11-22 19:00:00 12.4 6 Sur 20 Sudoeste 1.1 -- -- 94
2019-11-22 18:00:00 12.7 8 Sur 21 Sur 0.2 -- -- 89
2019-11-22 17:00:00 12.8 10 Sur 30 Sur 0 -- -- 86
2019-11-22 16:00:00 13.3 12 Sur 27 Sudoeste 0 -- -- 82
2019-11-22 15:00:00 14.3 11 Sur 27 Sur 0 -- -- 81
2019-11-22 14:00:00 14.2 12 Sur 24 Sudoeste 0 -- -- 84
2019-11-22 13:00:00 13.6 8 Sur 17 Sudoeste 0.2 -- -- 85
2019-11-22 12:00:00 12.5 2 Sudeste 8 Sudoeste 0 -- -- 86
2019-11-22 11:00:00 11 3 Sudoeste 6 Oeste 0 -- -- 89
2019-11-22 10:00:00 9.3 0 Calma 7 Sur 0 -- -- 91
2019-11-22 09:00:00 9.2 0 Calma 6 Norte 0 -- -- 91
2019-11-22 08:00:00 8 2 Sur 5 Sudeste 0 -- -- 94
2019-11-22 07:00:00 7.3 0 Calma 5 Sur 0 -- -- 94
2019-11-22 06:00:00 7.7 0 Calma 8 Noroeste 0 -- -- 94
2019-11-22 05:00:00 7.2 0 Calma 5 Sur 0 -- -- 94
2019-11-22 04:00:00 7.7 0 Calma 4 Nordeste 0 -- -- 94
2019-11-22 03:00:00 7.5 0 Calma 6 Sur 0 -- -- 93
2019-11-22 02:00:00 9.4 0 Calma 10 Norte 0 -- -- 91
2019-11-22 01:00:00 9.1 2 Oeste 5 Oeste 0 -- -- 90
2019-11-22 00:00:00 10.5 0 Calma 4 Norte 0 -- -- 85
2019-11-21 23:00:00 10.9 0 Calma 8 Noroeste 0 -- -- 84
2019-11-21 22:00:00 11.6 4 Nordeste 10 Norte 0 -- -- 80
2019-11-21 21:00:00 11.2 0 Calma 5 Sudoeste 0 -- -- 84
2019-11-21 20:00:00 11.8 0 Calma 3 Sur 0 -- -- 74
2019-11-21 19:00:00 12.5 0 Calma 5 Oeste 0 -- -- 69
2019-11-21 18:00:00 13.4 2 Sudoeste 12 Sudoeste 0 -- -- 64
2019-11-21 17:00:00 15 6 Sudoeste 11 Sudoeste 0 -- -- 60
2019-11-21 16:00:00 15.6 0 Calma 8 Sur 0 -- -- 58
2019-11-21 15:00:00 15.5 3 Sudeste 7 Sur 0 -- -- 60
2019-11-21 14:00:00 14.3 0 Calma 7 Oeste 0 -- -- 64
2019-11-21 13:00:00 12.7 4 Sudoeste 7 Sudoeste 0 -- -- 71
2019-11-21 12:00:00 13.1 0 Calma 6 Norte 0 -- -- 66
2019-11-21 11:00:00 10.4 0 Calma 6 Sudoeste 0 -- -- 83
2019-11-21 10:00:00 7.7 0 Calma 6 Norte 0 -- -- 90
2019-11-21 09:00:00 6 0 Calma 6 Sur 0 -- -- 91
2019-11-21 08:00:00 -- 0 Calma -- -- -- -- -- --
2019-11-21 07:00:00 -- -- -- -- -- -- -- -- --
2019-11-21 06:00:00 -- -- -- -- -- -- -- -- --
2019-11-21 05:00:00 -- -- -- -- -- -- -- -- --
2019-11-21 04:00:00 -- -- -- -- -- -- -- -- --
2019-11-21 03:00:00 5.6 3 Oeste 5 Noroeste 0 -- -- 89
2019-11-21 02:00:00 5.9 0 Calma 8 Norte 0 -- -- 86
2019-11-21 01:00:00 7.3 2 Norte 9 Noroeste 0 -- -- 82
2019-11-21 00:00:00 8.4 0 Calma 12 Noroeste 0 -- -- 78
2019-11-20 23:00:00 8.1 0 Calma 8 Noroeste 0 -- -- 80
2019-11-20 22:00:00 9.1 2 Noroeste 10 Noroeste 0 -- -- 78
2019-11-20 21:00:00 9.6 4 Norte 10 Noroeste 0 -- -- 73
2019-11-20 20:00:00 10.2 5 Noroeste 11 Norte 0 -- -- 72
2019-11-20 19:00:00 10.3 4 Norte 16 Norte 0 -- -- 77
2019-11-20 18:00:00 11.6 0 Calma 10 Sudoeste 0.2 -- -- 87
2019-11-20 17:00:00 12.9 3 Sur 15 Sur 0 -- -- 68
2019-11-20 16:00:00 13.7 8 Sur 15 Sur 0 -- -- 59
2019-11-20 15:00:00 15.2 7 Sur 18 Sudoeste 0 -- -- 51
2019-11-20 14:00:00 15.8 6 Sur 17 Sudoeste 0 -- -- 48
2019-11-20 13:00:00 14.2 5 Sur 11 Sur 0 -- -- 56
2019-11-20 12:00:00 13 2 Norte 9 Noroeste 0 -- -- 58
2019-11-20 11:00:00 10.6 4 Noroeste 14 Noroeste 0 -- -- 59
2019-11-20 10:00:00 7.5 5 Norte 15 Noroeste 0 -- -- 70
2019-11-20 09:00:00 4.1 0 Calma 5 Sudoeste 0 -- -- 88
2019-11-20 08:00:00 3.7 0 Calma 4 Oeste 0 -- -- 89
2019-11-20 07:00:00 5.9 2 Noroeste 14 Noroeste 0 -- -- 77
2019-11-20 06:00:00 4.6 0 Calma 8 Noroeste 0 -- -- 91
2019-11-20 05:00:00 4.8 2 Noroeste 14 Noroeste 0 -- -- 88
2019-11-20 04:00:00 5.7 0 Calma 17 Noroeste 0 -- -- 89
2019-11-20 03:00:00 6 3 Noroeste 10 Noroeste 0 -- -- 87
2019-11-20 02:00:00 6.8 5 Noroeste 12 Noroeste 0 -- -- 82
2019-11-20 01:00:00 5.5 0 Calma 4 Sur 0 -- -- 90
2019-11-20 00:00:00 6.5 0 Calma 10 Noroeste 0 -- -- 88
2019-11-19 23:00:00 7.6 3 Norte 11 Noroeste 0 -- -- 86
2019-11-19 22:00:00 6.8 0 Calma 3 Nordeste 0 -- -- 88
2019-11-19 21:00:00 7.6 0 Calma 3 Norte 0 -- -- 84
2019-11-19 20:00:00 8.4 0 Calma 4 Sur 0 -- -- 81
2019-11-19 19:00:00 9.8 0 Calma 6 Sudoeste 0 -- -- 76
2019-11-19 18:00:00 11.3 4 Sudoeste 15 Sur 0 -- -- 72
2019-11-19 17:00:00 12.5 5 Sur 18 Sur 0 -- -- 66
2019-11-19 16:00:00 14.4 8 Sur 16 Sudeste 0 -- -- 53
2019-11-19 15:00:00 15.4 3 Sudeste 12 Sur 0 -- -- 43
2019-11-19 14:00:00 15.1 2 Este 8 Sudeste 0 -- -- 43
2019-11-19 13:00:00 14 3 Sudoeste 9 Sudoeste 0 -- -- 48
2019-11-19 12:00:00 12.5 4 Sudoeste 14 Noroeste 0 -- -- 52
2019-11-19 11:00:00 10.3 5 Noroeste 14 Noroeste 0 -- -- 59
2019-11-19 10:00:00 7.1 4 Sur 9 Sudoeste 0 -- -- 72
2019-11-19 09:00:00 4.6 0 Calma 14 Oeste 0 -- -- 78
2019-11-19 08:00:00 2.7 3 Sur 12 Noroeste 0 -- -- 81
2019-11-19 07:00:00 5.2 2 Sudoeste 14 Noroeste 0 -- -- 73
2019-11-19 06:00:00 5.2 4 Noroeste 19 Noroeste 0 -- -- 72
2019-11-19 05:00:00 4.8 6 Noroeste 13 Noroeste 0 -- -- 77
2019-11-19 04:00:00 3.1 3 Oeste 8 Sur 0 -- -- 79
2019-11-19 03:00:00 3.5 0 Calma 5 Sudeste 0 -- -- 79
2019-11-19 02:00:00 5 0 Calma 9 Sudoeste 0 -- -- 73
2019-11-19 01:00:00 4.4 2 Nordeste 6 Norte 0 -- -- 77
2019-11-19 00:00:00 5.7 2 Noroeste 6 Oeste 0 -- -- 68
2019-11-18 23:00:00 7 0 Calma 8 Nordeste 0 -- -- 64
2019-11-18 22:00:00 7.3 0 Calma 9 Nordeste 0 -- -- 59
2019-11-18 21:00:00 8.2 3 Nordeste 6 Nordeste 0 -- -- 56
2019-11-18 20:00:00 9.6 0 Calma 14 Nordeste 0 -- -- 49
2019-11-18 19:00:00 11.6 7 Norte 20 Noroeste 0 -- -- 44
2019-11-18 18:00:00 12.5 5 Norte 20 Noroeste 0 -- -- 43
2019-11-18 17:00:00 14.6 8 Noroeste 24 Noroeste 0 -- -- 40
2019-11-18 16:00:00 14.9 9 Norte 24 Norte 0 -- -- 41
2019-11-18 15:00:00 15.5 10 Norte 30 Norte 0 -- -- 41
2019-11-18 14:00:00 15.3 11 Norte 35 Norte 0 -- -- 42
2019-11-18 13:00:00 14.7 13 Norte 37 Noroeste 0 -- -- 45
2019-11-18 12:00:00 13.9 11 Norte 31 Norte 0 -- -- 48
2019-11-18 11:00:00 13 9 Norte 26 Noroeste 0 -- -- 52
2019-11-18 10:00:00 11.3 8 Noroeste 25 Noroeste 0 -- -- 59
2019-11-18 09:00:00 9.4 13 Noroeste 27 Noroeste 0.2 -- -- 67
2019-11-18 08:00:00 9.4 11 Noroeste 22 Noroeste 0 -- -- 77
2019-11-18 07:00:00 8.7 2 Noroeste 13 Noroeste 0 -- -- 91
2019-11-18 06:00:00 9 4 Noroeste 13 Oeste 0.4 -- -- 90
2019-11-18 05:00:00 9.3 7 Noroeste 17 Noroeste 1.2 -- -- 88
2019-11-18 04:00:00 11.8 0 Calma 23 Noroeste 0.4 -- -- 86
2019-11-18 03:00:00 11.9 0 Calma 7 Sudoeste 0.2 -- -- 83
2019-11-18 02:00:00 13.3 0 Calma 13 Sudoeste 0 -- -- 73
2019-11-18 01:00:00 14.4 4 Sudoeste 22 Sudoeste 0 -- -- 66
2019-11-18 00:00:00 15.2 6 Oeste 19 Oeste 0 -- -- 64
2019-11-17 23:00:00 11.5 0 Calma 8 Oeste 0 -- -- 72
2019-11-17 22:00:00 11.7 2 Nordeste 9 Oeste 0 -- -- 71
2019-11-17 21:00:00 11.9 0 Calma 9 Norte 0 -- -- 70
2019-11-17 20:00:00 10.7 4 Nordeste 8 Nordeste 0 -- -- 72
2019-11-17 19:00:00 10.7 0 Calma 9 Noroeste 0 -- -- 68
2019-11-17 18:00:00 12.7 3 Sudeste 12 Noroeste 0 -- -- 61
2019-11-17 17:00:00 14.4 0 Calma 12 Sudoeste 0 -- -- 56
2019-11-17 16:00:00 15.1 2 Norte 9 Noroeste 0 -- -- 51
2019-11-17 15:00:00 14.4 0 Calma 9 Sudoeste 0 -- -- 48
2019-11-17 14:00:00 14.3 2 Norte 6 Sudeste 0 -- -- 46
2019-11-17 13:00:00 13.4 3 Sur 6 Sur 0 -- -- 48
2019-11-17 12:00:00 12.1 2 Sudoeste 7 Sudeste 0 -- -- 54
2019-11-17 11:00:00 9.6 0 Calma 5 Noroeste 0 -- -- 59
2019-11-17 10:00:00 6.4 0 Calma 5 Sur 0 -- -- 71
2019-11-17 09:00:00 2.3 0 Calma 7 Sudeste 0 -- -- 79
2019-11-17 08:00:00 0.5 0 Calma 4 Sur 0 -- -- 83
2019-11-17 07:00:00 0.3 0 Calma 5 Oeste 0 -- -- 80
2019-11-17 06:00:00 0.6 0 Calma 4 Sur 0 -- -- 78
2019-11-17 05:00:00 2 0 Calma 6 Sudoeste 0 -- -- 73
2019-11-17 04:00:00 2.6 3 Sudoeste 9 Sudoeste 0 -- -- 71
2019-11-17 03:00:00 2.9 0 Calma 6 Sudoeste 0 -- -- 68
2019-11-17 02:00:00 4.9 0 Calma 19 Noroeste 0 -- -- 62
2019-11-17 01:00:00 4.3 4 Oeste 10 Oeste 0 -- -- 65
2019-11-17 00:00:00 4.7 2 Norte 6 Noroeste 0 -- -- 63
2019-11-16 23:00:00 5.2 0 Calma 8 Noroeste 0 -- -- 60
2019-11-16 22:00:00 6.5 0 Calma 12 Norte 0 -- -- 55
2019-11-16 21:00:00 8.9 7 Noroeste 18 Noroeste 0 -- -- 48
2019-11-16 20:00:00 10 11 Noroeste 21 Oeste 0 -- -- 47
2019-11-16 19:00:00 11 5 Noroeste 14 Noroeste 0 -- -- 44
2019-11-16 18:00:00 12.3 3 Norte 21 Noroeste 0 -- -- 41
2019-11-16 17:00:00 14.3 5 Norte 16 Norte 0 -- -- 39
2019-11-16 16:00:00 15.1 7 Norte 23 Noroeste 0 -- -- 37
2019-11-16 15:00:00 14.8 13 Noroeste 24 Noroeste 0 -- -- 37
2019-11-16 14:00:00 14.9 11 Noroeste 23 Noroeste 0 -- -- 39
2019-11-16 13:00:00 14.6 3 Norte 19 Noroeste 0 -- -- 43
2019-11-16 12:00:00 12.2 10 Noroeste 28 Noroeste 0 -- -- 47
2019-11-16 11:00:00 11.1 12 Noroeste 23 Noroeste 0 -- -- 50
2019-11-16 10:00:00 9 9 Noroeste 22 Noroeste 0 -- -- 58
2019-11-16 09:00:00 5.9 3 Norte 10 Norte 0 -- -- 66
2019-11-16 08:00:00 5.7 5 Norte 17 Noroeste 0 -- -- 65
2019-11-16 07:00:00 5.4 13 Noroeste 18 Noroeste 0 -- -- 66
2019-11-16 06:00:00 4.4 3 Norte 12 Nordeste 0 -- -- 70
2019-11-16 05:00:00 4.6 6 Norte 13 Norte 0 -- -- 68
2019-11-16 04:00:00 5.1 4 Norte 10 Norte 0 -- -- 67
2019-11-16 03:00:00 5.4 5 Norte 20 Noroeste 0 -- -- 64
2019-11-16 02:00:00 6.1 11 Noroeste 19 Noroeste 0 -- -- 61
2019-11-16 01:00:00 7 12 Noroeste 20 Noroeste 0 -- -- 59
2019-11-16 00:00:00 6.7 2 Oeste 16 Noroeste 0 -- -- 60
2019-11-15 23:00:00 7 9 Noroeste 20 Noroeste 0 -- -- 58
2019-11-15 22:00:00 6.5 11 Noroeste 21 Noroeste 0 -- -- 58
2019-11-15 21:00:00 6.6 9 Norte 21 Noroeste 0 -- -- 55
2019-11-15 20:00:00 8.3 11 Noroeste 18 Norte 0 -- -- 52
2019-11-15 19:00:00 9.5 9 Noroeste 17 Noroeste 0 -- -- 47
2019-11-15 18:00:00 10.6 8 Noroeste 18 Oeste 0 -- -- 46
2019-11-15 17:00:00 12.1 9 Noroeste 23 Oeste 0 -- -- 42
2019-11-15 16:00:00 13 9 Noroeste 23 Noroeste 0 -- -- 42
2019-11-15 15:00:00 12.5 13 Noroeste 31 Noroeste 0 -- -- 43
2019-11-15 14:00:00 13.2 12 Noroeste 28 Noroeste 0 -- -- 43
2019-11-15 13:00:00 13.2 11 Noroeste 23 Noroeste 0 -- -- 45
2019-11-15 12:00:00 12.9 6 Oeste 17 Noroeste 0 -- -- 46
2019-11-15 11:00:00 11.8 3 Oeste 12 Sur 0 -- -- 52
2019-11-15 10:00:00 9.8 3 Noroeste 8 Noroeste 0 -- -- 55
2019-11-15 09:00:00 8.5 0 Calma 19 Noroeste 0 -- -- 58
2019-11-15 08:00:00 9.1 7 Noroeste 22 Noroeste 0 -- -- 55
2019-11-15 07:00:00 9.5 10 Noroeste 23 Oeste 0 -- -- 54
2019-11-15 06:00:00 7.7 0 Calma 18 Noroeste 0 -- -- 59
2019-11-15 05:00:00 9 3 Noroeste 22 Noroeste 0 -- -- 53
2019-11-15 04:00:00 10.5 5 Oeste 28 Oeste 0 -- -- 51
2019-11-15 03:00:00 10.7 12 Oeste 31 Noroeste 0 -- -- 50
2019-11-15 02:00:00 10.9 4 Oeste 31 Noroeste 0 -- -- 51
2019-11-15 01:00:00 10.8 7 Sudoeste 21 Oeste 0 -- -- 54
2019-11-15 00:00:00 11 12 Noroeste 28 Noroeste 0 -- -- 54
2019-11-14 23:00:00 11.4 16 Noroeste 31 Noroeste 0 -- -- 53
2019-11-14 22:00:00 11.1 4 Noroeste 35 Noroeste 0 -- -- 53
2019-11-14 21:00:00 11.6 16 Noroeste 59 Noroeste 0 -- -- 52
2019-11-14 20:00:00 12.1 31 Noroeste 60 Noroeste 0 -- -- 51
2019-11-14 19:00:00 12.2 29 Noroeste 50 Oeste 0 -- -- 51
2019-11-14 18:00:00 12.5 26 Noroeste 44 Noroeste 0 -- -- 49
2019-11-14 17:00:00 13.9 9 Oeste 22 Sudoeste 0 -- -- 52
2019-11-14 16:00:00 12.7 9 Norte 35 Oeste 0 -- -- 59
2019-11-14 15:00:00 16 14 Oeste 28 Oeste 0 -- -- 52
2019-11-14 14:00:00 15.5 7 Sudoeste 23 Oeste 0 -- -- 55
2019-11-14 13:00:00 15.3 9 Sudoeste 23 Sudoeste 0 -- -- 55
2019-11-14 12:00:00 14.6 7 Sudoeste 15 Sudoeste 0 -- -- 55
2019-11-14 11:00:00 14.1 5 Sudoeste 13 Sudoeste 0 -- -- 59
2019-11-14 10:00:00 11.5 0 Calma 6 Sur 0 -- -- 75
2019-11-14 09:00:00 9.4 0 Calma 7 Norte 0 -- -- 78
2019-11-14 08:00:00 8.8 0 Calma 4 Oeste 0 -- -- 78
2019-11-14 07:00:00 9.6 0 Calma 7 Sudoeste 0 -- -- 73
2019-11-14 06:00:00 11.4 3 Sudoeste 8 Sudoeste 0 -- -- 70
2019-11-14 05:00:00 12.3 0 Calma 12 Oeste 0 -- -- 68
2019-11-14 04:00:00 10.5 0 Calma 5 Oeste 0 -- -- 76
2019-11-14 03:00:00 11.9 0 Calma 10 Sur 0 -- -- 71
2019-11-14 02:00:00 13.3 3 Noroeste 13 Oeste 0 -- -- 66
2019-11-14 01:00:00 14 5 Sudoeste 12 Oeste 0 -- -- 66
2019-11-14 00:00:00 10.9 0 Calma 10 Oeste 0 -- -- 72
2019-11-13 23:00:00 11.6 0 Calma 5 Sur 0 -- -- 70
2019-11-13 22:00:00 13.9 3 Norte 7 Sudoeste 0 -- -- 62
2019-11-13 21:00:00 13.6 0 Calma 9 Oeste 0 -- -- 61
2019-11-13 20:00:00 17.6 8 Noroeste 17 Noroeste 0 -- -- 51
2019-11-13 19:00:00 18.3 8 Oeste 15 Oeste 0 -- -- 49
2019-11-13 18:00:00 19.1 7 Noroeste 21 Sudoeste 0 -- -- 47
2019-11-13 17:00:00 21.3 6 Sudoeste 29 Noroeste 0 -- -- 43
2019-11-13 16:00:00 22 14 Noroeste 33 Noroeste 0 -- -- 41
2019-11-13 15:00:00 22.2 13 Noroeste 32 Noroeste 0 -- -- 41
2019-11-13 14:00:00 22.6 12 Noroeste 26 Noroeste 0 -- -- 43
2019-11-13 13:00:00 21.7 5 Noroeste 22 Oeste 0 -- -- 47
2019-11-13 12:00:00 21.1 8 Oeste 24 Noroeste 0 -- -- 49
2019-11-13 11:00:00 20 6 Sudoeste 18 Sudoeste 0 -- -- 52
2019-11-13 10:00:00 17.4 7 Sudoeste 23 Oeste 0 -- -- 58
2019-11-13 09:00:00 15.5 12 Sudoeste 23 Sudoeste 0 -- -- 60
2019-11-13 08:00:00 14.5 5 Noroeste 22 Noroeste 0 -- -- 61
2019-11-13 07:00:00 11.8 3 Oeste 18 Sudoeste 0 -- -- 65
2019-11-13 06:00:00 12.9 3 Oeste 19 Noroeste 0 -- -- 62
2019-11-13 05:00:00 10.4 0 Calma 7 Noroeste 0 -- -- 66
2019-11-13 04:00:00 10.9 0 Calma 6 Oeste 0 -- -- 64
2019-11-13 03:00:00 10.1 3 Sudoeste 9 Sur 0 -- -- 66
2019-11-13 02:00:00 9.3 0 Calma 10 Sudoeste 0 -- -- 66
2019-11-13 01:00:00 9.3 2 Norte 7 Nordeste 0 -- -- 64
2019-11-13 00:00:00 8.8 0 Calma 9 Sur 0 -- -- 65
2019-11-12 23:00:00 9.1 2 Noroeste 5 Sudoeste 0 -- -- 62
2019-11-12 22:00:00 9.9 0 Calma 11 Sur 0 -- -- 58
2019-11-12 21:00:00 10.8 5 Norte 10 Norte 0 -- -- 56
2019-11-12 20:00:00 11.6 0 Calma 8 Sudoeste 0 -- -- 62
2019-11-12 19:00:00 14.2 3 Sur 12 Noroeste 0 -- -- 52
2019-11-12 18:00:00 16.5 6 Noroeste 14 Noroeste 0 -- -- 35
2019-11-12 17:00:00 18.6 4 Norte 17 Norte 0 -- -- 33
2019-11-12 16:00:00 19.6 4 Norte 17 Noroeste 0 -- -- 33
2019-11-12 15:00:00 19.3 6 Norte 17 Noroeste 0 -- -- 34
2019-11-12 14:00:00 18 8 Noroeste 28 Noroeste 0 -- -- 35
2019-11-12 13:00:00 17.4 17 Noroeste 32 Noroeste 0 -- -- 35
2019-11-12 12:00:00 16.5 16 Noroeste 36 Noroeste 0 -- -- 37
2019-11-12 11:00:00 15.2 16 Noroeste 32 Noroeste 0 -- -- 41
2019-11-12 10:00:00 12.8 8 Noroeste 20 Noroeste 0 -- -- 50
2019-11-12 09:00:00 10.8 12 Noroeste 24 Noroeste 0 -- -- 52
2019-11-12 08:00:00 10.8 7 Norte 21 Noroeste 0 -- -- 53
2019-11-12 07:00:00 10.5 5 Noroeste 12 Oeste 0 -- -- 54
2019-11-12 06:00:00 10.8 0 Calma 19 Noroeste 0 -- -- 54
2019-11-12 05:00:00 10.9 0 Calma 22 Noroeste 0 -- -- 54
2019-11-12 04:00:00 11.9 6 Noroeste 28 Noroeste 0 -- -- 52
2019-11-12 03:00:00 11.8 5 Noroeste 18 Noroeste 0 -- -- 54
2019-11-12 02:00:00 11.8 0 Calma 29 Noroeste 0 -- -- 56
2019-11-12 01:00:00 13.1 8 Norte 27 Noroeste 0 -- -- 54
2019-11-12 00:00:00 13.2 0 Calma 20 Norte 0 -- -- 58
2019-11-11 23:00:00 13.3 4 Nordeste 23 Noroeste 0 -- -- 58
2019-11-11 22:00:00 14.5 6 Norte 22 Noroeste 0 -- -- 57
2019-11-11 21:00:00 12.9 0 Calma 12 Noroeste 0 -- -- 59
2019-11-11 20:00:00 12.4 3 Sur 12 Sur 0 -- -- 54
2019-11-11 19:00:00 11.8 0 Calma 6 Nordeste 0 -- -- 55
2019-11-11 18:00:00 13.7 0 Calma 5 Nordeste 0 -- -- 51
2019-11-11 17:00:00 16.2 0 Calma 6 Nordeste 0 -- -- 46
2019-11-11 16:00:00 16.4 0 Calma 8 Sur 0 -- -- 45
2019-11-11 15:00:00 16.4 3 Sudeste 14 Sur 0 -- -- 45
2019-11-11 14:00:00 16.1 5 Noroeste 19 Noroeste 0 -- -- 43
2019-11-11 13:00:00 14.9 4 Oeste 15 Sudoeste 0 -- -- 45
2019-11-11 12:00:00 13.8 6 Noroeste 15 Noroeste 0 -- -- 46
2019-11-11 11:00:00 12.8 4 Oeste 12 Noroeste 0 -- -- 48
2019-11-11 10:00:00 11.5 3 Oeste 26 Noroeste 0 -- -- 49
2019-11-11 09:00:00 10.8 12 Noroeste 32 Noroeste 0 -- -- 48
2019-11-11 08:00:00 10.6 14 Noroeste 34 Norte 0 -- -- 49
2019-11-11 07:00:00 9.9 11 Noroeste 48 Noroeste 0 -- -- 51
2019-11-11 06:00:00 10.2 23 Noroeste 44 Noroeste 0 -- -- 51
2019-11-11 05:00:00 10 17 Noroeste 46 Noroeste 0 -- -- 51
2019-11-11 04:00:00 9.8 23 Noroeste 41 Noroeste 0 -- -- 51
2019-11-11 03:00:00 10.1 26 Noroeste 45 Noroeste 0 -- -- 51
2019-11-11 02:00:00 10.4 18 Noroeste 35 Noroeste 0 -- -- 49
2019-11-11 01:00:00 10.9 18 Noroeste 41 Noroeste 0 -- -- 48
2019-11-11 00:00:00 11.2 21 Noroeste 40 Noroeste 0 -- -- 50